createdAt,value
2022-10-14T00:02:00.625Z,10.84
2022-10-14T00:04:27.843Z,10.85
2022-10-14T00:06:54.935Z,10.84
2022-10-14T00:09:22.017Z,10.87
2022-10-14T00:11:49.229Z,10.89
2022-10-14T00:14:19.114Z,10.90
2022-10-14T00:16:47.932Z,10.90
2022-10-14T00:19:15.765Z,10.89
2022-10-14T00:21:44.792Z,10.89
2022-10-14T00:24:13.031Z,10.82
2022-10-14T00:26:41.120Z,10.82
2022-10-14T00:29:14.141Z,10.84
2022-10-14T00:31:41.177Z,10.87
2022-10-14T00:34:08.231Z,10.88
2022-10-14T00:36:35.248Z,10.85
2022-10-14T00:39:02.392Z,10.87
2022-10-14T00:41:32.512Z,10.86
2022-10-14T00:44:25.136Z,10.85
2022-10-14T00:46:52.392Z,10.80
2022-10-14T00:49:20.983Z,10.74
2022-10-14T00:51:54.415Z,10.70
2022-10-14T00:54:24.508Z,10.69
2022-10-14T00:56:51.728Z,10.66
2022-10-14T00:59:19.023Z,10.62
2022-10-14T01:01:46.279Z,10.57
2022-10-14T01:04:13.818Z,10.51
2022-10-14T01:07:15.081Z,10.38
2022-10-14T01:09:53.477Z,10.38
2022-10-14T01:12:45.557Z,10.42
2022-10-14T01:15:38.982Z,10.40
2022-10-14T01:18:34.193Z,10.41
2022-10-14T01:21:08.790Z,10.30
2022-10-14T01:23:46.924Z,10.28
2022-10-14T01:26:16.958Z,10.23
2022-10-14T01:28:57.454Z,10.25
2022-10-14T01:31:31.289Z,10.24
2022-10-14T01:34:02.823Z,10.26
2022-10-14T01:36:34.040Z,10.26
2022-10-14T01:39:15.957Z,10.26
2022-10-14T01:41:49.331Z,10.25
2022-10-14T01:44:17.944Z,10.23
2022-10-14T01:46:49.141Z,10.18
2022-10-14T01:49:58.586Z,10.15
2022-10-14T01:52:28.630Z,10.17
2022-10-14T01:54:59.280Z,10.21
2022-10-14T01:57:35.695Z,10.23
2022-10-14T02:00:05.228Z,10.22
2022-10-14T02:02:36.395Z,10.23
2022-10-14T02:05:10.691Z,10.18
2022-10-14T02:07:44.955Z,10.15
2022-10-14T02:10:46.830Z,9.98
2022-10-14T02:13:52.910Z,9.93
2022-10-14T02:16:27.410Z,9.95
2022-10-14T02:19:03.714Z,9.98
2022-10-14T02:21:41.961Z,10.00
2022-10-14T02:24:30.969Z,10.00
2022-10-14T02:27:01.021Z,9.98
2022-10-14T02:29:29.886Z,9.96
2022-10-14T02:31:57.899Z,9.96
2022-10-14T02:34:26.050Z,9.98
2022-10-14T02:36:54.709Z,9.86
2022-10-14T02:39:28.670Z,9.89
2022-10-14T02:41:56.036Z,9.93
2022-10-14T02:44:23.651Z,9.93
2022-10-14T02:46:50.989Z,9.87
2022-10-14T02:49:19.419Z,9.83
2022-10-14T02:51:46.629Z,9.85
2022-10-14T02:54:14.389Z,9.88
2022-10-14T02:56:41.591Z,9.85
2022-10-14T02:59:08.936Z,9.87
2022-10-14T03:01:37.751Z,9.85
2022-10-14T03:04:05.432Z,9.85
2022-10-14T03:06:32.560Z,9.84
2022-10-14T03:08:59.877Z,9.87
2022-10-14T03:11:27.034Z,9.85
2022-10-14T03:13:54.359Z,9.84
2022-10-14T03:16:21.475Z,9.91
2022-10-14T03:18:48.678Z,9.97
2022-10-14T03:21:15.865Z,10.01
2022-10-14T03:23:43.044Z,10.04
2022-10-14T03:26:13.838Z,10.06
2022-10-14T03:28:41.716Z,10.09
2022-10-14T03:31:08.896Z,10.12
2022-10-14T03:33:37.351Z,10.13
2022-10-14T03:36:04.596Z,10.14
2022-10-14T03:38:31.694Z,10.12
2022-10-14T03:40:59.263Z,10.08
2022-10-14T03:43:26.408Z,10.04
2022-10-14T03:45:53.867Z,10.06
2022-10-14T03:48:21.317Z,10.09
2022-10-14T03:50:48.670Z,10.02
2022-10-14T03:53:15.958Z,9.97
2022-10-14T03:55:43.026Z,9.95
2022-10-14T03:58:11.314Z,9.90
2022-10-14T04:00:38.478Z,9.88
2022-10-14T04:03:05.642Z,9.91
2022-10-14T04:05:34.801Z,9.92
2022-10-14T04:08:02.068Z,9.90
2022-10-14T04:10:29.631Z,9.87
2022-10-14T04:12:57.006Z,9.88
2022-10-14T04:15:24.295Z,9.95
2022-10-14T04:17:51.877Z,10.02
2022-10-14T04:20:19.277Z,10.01
2022-10-14T04:22:46.430Z,9.88
2022-10-14T04:25:13.690Z,9.76
2022-10-14T04:27:40.898Z,9.63
2022-10-14T04:30:08.582Z,9.63
2022-10-14T04:32:35.756Z,9.67
2022-10-14T04:35:02.964Z,9.73
2022-10-14T04:37:30.211Z,9.75
2022-10-14T04:39:57.349Z,9.78
2022-10-14T04:42:25.435Z,9.80
2022-10-14T04:44:52.948Z,9.74
2022-10-14T04:47:20.639Z,9.71
2022-10-14T04:49:47.787Z,9.73
2022-10-14T04:52:15.208Z,9.76
2022-10-14T04:54:42.466Z,9.78
2022-10-14T04:57:10.105Z,9.70
2022-10-14T04:59:38.696Z,9.57
2022-10-14T05:02:05.924Z,9.44
2022-10-14T05:04:33.417Z,9.48
2022-10-14T05:07:00.569Z,9.51
2022-10-14T05:09:27.770Z,9.56
2022-10-14T05:11:54.920Z,9.60
2022-10-14T05:14:22.904Z,9.62
2022-10-14T05:16:50.019Z,9.69
2022-10-14T05:19:17.168Z,9.69
2022-10-14T05:21:44.370Z,9.66
2022-10-14T05:24:11.566Z,9.68
2022-10-14T05:26:38.755Z,9.72
2022-10-14T05:29:06.016Z,9.70
2022-10-14T05:31:33.221Z,9.70
2022-10-14T05:34:00.350Z,9.70
2022-10-14T05:36:27.514Z,9.71
2022-10-14T05:38:58.630Z,9.74
2022-10-14T05:41:26.515Z,9.77
2022-10-14T05:43:53.797Z,9.82
2022-10-14T05:46:21.295Z,9.85
2022-10-14T05:48:48.431Z,9.90
2022-10-14T05:51:20.993Z,9.93
2022-10-14T05:53:48.737Z,9.99
2022-10-14T05:56:15.893Z,10.01
2022-10-14T05:58:43.013Z,10.02
2022-10-14T06:01:11.085Z,10.06
2022-10-14T06:03:38.214Z,10.11
2022-10-14T06:06:05.490Z,10.12
2022-10-14T06:08:32.638Z,10.13
2022-10-14T06:11:03.055Z,10.14
2022-10-14T06:13:30.703Z,10.15
2022-10-14T06:16:06.190Z,10.17
2022-10-14T06:18:34.171Z,10.22
2022-10-14T06:21:01.733Z,10.25
2022-10-14T06:23:29.562Z,10.28
2022-10-14T06:25:56.896Z,10.28
2022-10-14T06:28:24.009Z,10.31
2022-10-14T06:30:54.676Z,10.33
2022-10-14T06:33:22.677Z,10.35
2022-10-14T06:35:50.288Z,10.36
2022-10-14T06:38:18.471Z,10.34
2022-10-14T06:40:45.730Z,10.31
2022-10-14T06:43:12.892Z,10.36
2022-10-14T06:45:39.981Z,10.39
2022-10-14T06:48:07.282Z,10.38
2022-10-14T06:50:34.396Z,10.45
2022-10-14T06:53:02.871Z,10.50
2022-10-14T06:55:30.711Z,10.52
2022-10-14T06:57:58.286Z,10.50
2022-10-14T07:00:25.382Z,10.51
2022-10-14T07:02:53.177Z,10.58
2022-10-14T07:05:20.814Z,10.61
2022-10-14T07:07:47.983Z,10.64
2022-10-14T07:10:15.226Z,10.65
2022-10-14T07:12:43.364Z,10.69
2022-10-14T07:15:10.885Z,10.72
2022-10-14T07:17:38.388Z,10.74
2022-10-14T07:20:06.278Z,10.81
2022-10-14T07:22:38.669Z,10.82
2022-10-14T07:25:07.154Z,10.79
2022-10-14T07:27:34.346Z,10.80
2022-10-14T07:30:04.258Z,10.83
2022-10-14T07:32:57.178Z,10.85
2022-10-14T07:35:28.404Z,10.88
2022-10-14T07:37:57.593Z,10.95
2022-10-14T07:40:24.851Z,10.98
2022-10-14T07:42:52.007Z,11.00
2022-10-14T07:45:21.053Z,11.01
2022-10-14T07:47:50.313Z,11.03
2022-10-14T07:50:17.860Z,11.00
2022-10-14T07:52:45.125Z,11.02
2022-10-14T07:55:12.498Z,11.05
2022-10-14T07:57:39.746Z,11.06
2022-10-14T08:00:10.047Z,11.14
2022-10-14T08:02:37.344Z,11.19
2022-10-14T08:05:25.742Z,11.23
2022-10-14T08:07:52.187Z,11.30
2022-10-14T08:10:19.446Z,11.37
2022-10-14T08:12:47.924Z,11.38
2022-10-14T08:15:15.416Z,11.46
2022-10-14T08:17:43.048Z,11.51
2022-10-14T08:20:11.109Z,11.53
2022-10-14T08:22:39.492Z,11.56
2022-10-14T08:25:06.903Z,11.61
2022-10-14T08:27:35.024Z,11.64
2022-10-14T08:30:10.272Z,11.65
2022-10-14T08:32:38.704Z,11.72
2022-10-14T08:35:06.415Z,11.79
2022-10-14T08:37:33.603Z,11.87
2022-10-14T08:40:00.800Z,11.99
2022-10-14T08:42:49.686Z,12.05
2022-10-14T08:45:33.071Z,12.15
2022-10-14T08:48:04.994Z,12.29
2022-10-14T08:50:48.250Z,12.40
2022-10-14T08:53:22.856Z,12.54
2022-10-14T08:55:57.518Z,12.67
2022-10-14T08:58:46.561Z,12.78
2022-10-14T09:01:25.653Z,12.93
2022-10-14T09:04:03.351Z,13.06
2022-10-14T09:06:32.702Z,13.16
2022-10-14T09:09:18.237Z,13.28
2022-10-14T09:11:48.834Z,13.37
2022-10-14T09:14:18.734Z,13.45
2022-10-14T09:16:51.712Z,13.55
2022-10-14T09:19:32.331Z,13.65
2022-10-14T09:22:01.326Z,13.74
2022-10-14T09:24:36.829Z,13.81
2022-10-14T09:27:08.999Z,13.88
2022-10-14T09:29:48.532Z,14.00
2022-10-14T09:36:31.838Z,14.27
2022-10-14T09:39:03.637Z,14.38
2022-10-14T09:41:33.949Z,14.50
2022-10-14T09:44:25.738Z,14.59
2022-10-14T09:46:58.897Z,14.63
2022-10-14T09:49:47.081Z,14.73
2022-10-14T09:52:25.059Z,14.77
2022-10-14T09:54:57.306Z,14.82
2022-10-14T09:57:25.476Z,14.86
2022-10-14T10:00:00.802Z,14.99
2022-10-14T10:02:43.472Z,15.11
2022-10-14T10:05:37.005Z,15.17
2022-10-14T10:08:12.569Z,15.25
2022-10-14T10:10:40.124Z,15.33
2022-10-14T10:13:32.690Z,15.40
2022-10-14T10:16:01.962Z,15.48
2022-10-14T10:18:29.260Z,15.54
2022-10-14T10:21:15.712Z,15.63
2022-10-14T10:23:56.730Z,15.67
2022-10-14T10:26:31.876Z,15.72
2022-10-14T10:29:02.617Z,15.85
2022-10-14T10:31:48.505Z,15.93
2022-10-14T10:34:24.858Z,16.00
2022-10-14T10:37:01.827Z,16.06
2022-10-14T10:39:44.217Z,16.07
2022-10-14T10:42:29.738Z,16.09
2022-10-14T10:45:18.684Z,16.15
2022-10-14T10:48:01.618Z,16.27
2022-10-14T10:50:36.310Z,16.27
2022-10-14T10:53:09.499Z,16.27
2022-10-14T10:55:58.490Z,16.36
2022-10-14T10:58:41.405Z,16.36
2022-10-14T11:01:36.924Z,16.36
2022-10-14T11:04:22.404Z,16.23
2022-10-14T11:07:56.619Z,16.28
2022-10-14T11:11:08.825Z,16.24
2022-10-14T11:13:46.306Z,16.29
2022-10-14T11:16:26.800Z,16.30
2022-10-14T11:19:14.750Z,16.24
2022-10-14T11:21:45.319Z,16.24
2022-10-14T11:24:40.380Z,16.28
2022-10-14T11:27:24.001Z,16.35
2022-10-14T11:30:10.066Z,16.38
2022-10-14T11:32:57.120Z,16.39
2022-10-14T11:38:20.090Z,16.41
2022-10-14T11:41:32.421Z,16.67
2022-10-14T11:44:32.859Z,16.61
2022-10-14T11:47:05.877Z,16.69
2022-10-14T11:49:40.247Z,16.78
2022-10-14T11:52:12.070Z,16.73
2022-10-14T11:54:52.659Z,16.66
2022-10-14T11:57:50.806Z,16.73
2022-10-14T12:00:22.249Z,16.80
2022-10-14T12:02:56.735Z,16.87
2022-10-14T12:05:44.823Z,17.07
2022-10-14T12:08:43.973Z,17.24
2022-10-14T12:11:26.044Z,17.39
2022-10-14T12:13:57.609Z,17.36
2022-10-14T12:16:24.784Z,17.43
2022-10-14T12:18:56.216Z,17.50
2022-10-14T12:21:40.918Z,17.48
2022-10-14T12:24:14.578Z,17.48
2022-10-14T12:26:57.755Z,17.37
2022-10-14T12:29:27.838Z,17.37
2022-10-14T12:32:21.648Z,17.40
2022-10-14T12:34:56.466Z,17.44
2022-10-14T12:37:31.900Z,17.49
2022-10-14T12:40:02.492Z,17.51
2022-10-14T12:42:31.029Z,17.52
2022-10-14T12:45:01.554Z,17.45
2022-10-14T12:47:35.207Z,17.34
2022-10-14T12:50:22.460Z,17.32
2022-10-14T12:52:57.639Z,17.21
2022-10-14T12:55:26.539Z,17.18
2022-10-14T12:58:06.224Z,17.15
2022-10-14T13:00:39.711Z,17.03
2022-10-14T13:03:21.943Z,17.02
2022-10-14T13:05:53.272Z,17.08
2022-10-14T13:08:23.868Z,17.18
2022-10-14T13:11:02.522Z,17.27
2022-10-14T13:13:59.989Z,17.49
2022-10-14T13:16:27.232Z,17.63
2022-10-14T13:18:58.028Z,17.66
2022-10-14T13:21:38.649Z,17.93
2022-10-14T13:24:21.619Z,17.99
2022-10-14T13:26:54.960Z,18.08
2022-10-14T13:29:37.709Z,18.31
2022-10-14T13:32:27.207Z,18.11
2022-10-14T13:35:24.851Z,18.21
2022-10-14T13:38:00.754Z,18.35
2022-10-14T13:40:53.931Z,18.52
2022-10-14T13:43:37.817Z,18.66
2022-10-14T13:46:18.271Z,18.67
2022-10-14T13:48:48.151Z,18.66
2022-10-14T13:51:31.864Z,18.56
2022-10-14T13:54:32.436Z,18.40
2022-10-14T13:57:38.706Z,18.28
2022-10-14T14:02:54.552Z,18.05
2022-10-14T14:05:24.287Z,18.01
2022-10-14T14:11:03.597Z,17.71
2022-10-14T14:13:31.113Z,17.59
2022-10-14T14:15:58.831Z,17.47
2022-10-14T14:18:33.850Z,17.38
2022-10-14T14:21:13.479Z,17.32
2022-10-14T14:23:58.482Z,17.32
2022-10-14T14:26:36.280Z,17.30
2022-10-14T14:29:05.680Z,17.26
2022-10-14T14:31:54.653Z,17.21
2022-10-14T14:34:22.840Z,17.25
2022-10-14T14:36:57.863Z,17.29
2022-10-14T14:39:36.526Z,17.39
2022-10-14T14:42:04.371Z,17.39
2022-10-14T14:44:33.769Z,17.41
2022-10-14T14:47:03.183Z,17.39
2022-10-14T14:49:33.080Z,17.33
2022-10-14T14:52:07.794Z,17.26
2022-10-14T14:54:44.822Z,17.43
2022-10-14T14:57:23.115Z,17.64
2022-10-14T15:00:04.801Z,17.77
2022-10-14T15:02:34.263Z,17.83
2022-10-14T15:05:08.010Z,17.96
2022-10-14T15:07:36.567Z,17.95
2022-10-14T15:10:07.149Z,18.02
2022-10-14T15:12:42.563Z,18.05
2022-10-14T15:15:26.846Z,18.01
2022-10-14T15:18:16.655Z,17.97
2022-10-14T15:20:44.363Z,17.90
2022-10-14T15:23:38.111Z,17.76
2022-10-14T15:26:36.438Z,17.63
2022-10-14T15:29:03.925Z,17.56
2022-10-14T15:31:32.763Z,17.54
2022-10-14T15:34:00.803Z,17.40
2022-10-14T15:36:33.209Z,17.34
2022-10-14T15:39:01.670Z,17.34
2022-10-14T15:41:29.631Z,17.33
2022-10-14T15:43:57.213Z,17.30
2022-10-14T15:46:48.215Z,17.24
2022-10-14T15:49:20.372Z,17.18
2022-10-14T15:51:49.542Z,17.12
2022-10-14T15:54:17.032Z,17.07
2022-10-14T15:56:44.681Z,17.05
2022-10-14T15:59:16.177Z,17.01
2022-10-14T16:01:45.310Z,16.96
2022-10-14T16:04:22.423Z,16.91
2022-10-14T16:06:51.259Z,16.84
2022-10-14T16:09:18.833Z,16.79
2022-10-14T16:11:46.189Z,16.75
2022-10-14T16:14:13.792Z,16.68
2022-10-14T16:16:45.710Z,16.65
2022-10-14T16:19:13.193Z,16.60
2022-10-14T16:21:40.793Z,16.53
2022-10-14T16:26:39.237Z,16.34
2022-10-14T16:29:06.497Z,16.33
2022-10-14T16:31:33.957Z,16.31
2022-10-14T16:34:02.159Z,16.28
2022-10-14T16:36:29.543Z,16.25
2022-10-14T16:38:57.239Z,16.19
2022-10-14T16:41:25.206Z,16.15
2022-10-14T16:43:52.571Z,16.10
2022-10-14T16:46:20.169Z,16.06
2022-10-14T16:48:47.652Z,16.03
2022-10-14T16:51:15.582Z,15.98
2022-10-14T16:53:46.812Z,15.94
2022-10-14T16:56:37.104Z,15.90
2022-10-14T16:59:04.940Z,15.84
2022-10-14T17:01:32.526Z,15.80
2022-10-14T17:04:00.033Z,15.78
2022-10-14T17:06:27.861Z,15.77
2022-10-14T17:08:55.237Z,15.75
2022-10-14T17:11:22.723Z,15.72
2022-10-14T17:13:56.797Z,15.67
2022-10-14T17:16:24.266Z,15.64
2022-10-14T17:18:52.861Z,15.62
2022-10-14T17:21:20.336Z,15.60
2022-10-14T17:23:48.148Z,15.59
2022-10-14T17:26:20.430Z,15.56
2022-10-14T17:28:48.515Z,15.55
2022-10-14T17:31:20.912Z,15.52
2022-10-14T17:33:49.176Z,15.53
2022-10-14T17:36:23.196Z,15.50
2022-10-14T17:38:51.279Z,15.47
2022-10-14T17:41:19.861Z,15.43
2022-10-14T17:43:49.619Z,15.40
2022-10-14T17:46:20.882Z,15.37
2022-10-14T17:48:50.689Z,15.33
2022-10-14T17:51:18.406Z,15.31
2022-10-14T17:53:46.024Z,15.25
2022-10-14T17:56:13.381Z,15.22
2022-10-14T17:58:41.122Z,15.18
2022-10-14T18:01:11.122Z,15.14
2022-10-14T18:03:42.070Z,15.10
2022-10-14T18:06:20.942Z,15.09
2022-10-14T18:08:56.585Z,15.04
2022-10-14T18:11:24.545Z,15.02
2022-10-14T18:13:58.155Z,14.98
2022-10-14T18:16:26.951Z,14.93
2022-10-14T18:18:55.025Z,14.87
2022-10-14T18:21:22.395Z,14.87
2022-10-14T18:23:49.869Z,14.82
2022-10-14T18:26:19.535Z,14.77
2022-10-14T18:28:51.336Z,14.76
2022-10-14T18:31:24.675Z,14.73
2022-10-14T18:33:54.796Z,14.69
2022-10-14T18:36:25.279Z,14.66
2022-10-14T18:38:54.704Z,14.64
2022-10-14T18:41:22.886Z,14.60
2022-10-14T18:43:50.963Z,14.57
2022-10-14T18:46:23.486Z,14.52
2022-10-14T18:48:52.775Z,14.46
2022-10-14T18:51:25.766Z,14.42
2022-10-14T18:53:56.012Z,14.41
2022-10-14T18:56:25.777Z,14.38
2022-10-14T18:58:55.829Z,14.33
2022-10-14T19:01:23.820Z,14.28
2022-10-14T19:03:51.458Z,14.28
2022-10-14T19:06:19.426Z,14.26
2022-10-14T19:08:47.403Z,14.26
2022-10-14T19:11:19.779Z,14.25
2022-10-14T19:13:49.068Z,14.24
2022-10-14T19:16:18.826Z,14.22
2022-10-14T19:18:46.800Z,14.21
2022-10-14T19:21:15.713Z,14.18
2022-10-14T19:23:43.912Z,14.17
2022-10-14T19:26:19.818Z,14.15
2022-10-14T19:28:49.916Z,14.15
2022-10-14T19:31:22.195Z,14.15
2022-10-14T19:33:49.920Z,14.14
2022-10-14T19:36:18.363Z,14.12
2022-10-14T19:38:52.329Z,14.11
2022-10-14T19:41:19.921Z,14.11
2022-10-14T19:43:47.404Z,14.11
2022-10-14T19:46:14.883Z,14.09
2022-10-14T19:48:42.489Z,14.08
2022-10-14T19:51:10.331Z,14.08
2022-10-14T19:53:38.656Z,14.08
2022-10-14T19:56:11.669Z,14.09
2022-10-14T19:58:43.891Z,14.06
2022-10-14T20:01:15.221Z,14.05
2022-10-14T20:03:42.981Z,14.05
2022-10-14T20:06:11.900Z,14.02
2022-10-14T20:08:40.226Z,14.00
2022-10-14T20:11:10.467Z,14.00
2022-10-14T20:13:38.425Z,13.98
2022-10-14T20:16:08.430Z,13.98
2022-10-14T20:18:36.149Z,13.98
2022-10-14T20:21:05.481Z,13.93
2022-10-14T20:23:38.489Z,13.90
2022-10-14T20:26:17.521Z,13.88
2022-10-14T20:28:45.496Z,13.86
2022-10-14T20:31:14.795Z,13.85
2022-10-14T20:33:42.282Z,13.84
2022-10-14T20:36:15.045Z,13.82
2022-10-14T20:38:43.252Z,13.82
2022-10-14T20:41:16.374Z,13.79
2022-10-14T20:43:44.798Z,13.78
2022-10-14T20:46:13.032Z,13.78
2022-10-14T20:48:40.728Z,13.77
2022-10-14T20:51:10.624Z,13.74
2022-10-14T20:53:38.311Z,13.75
2022-10-14T20:56:08.581Z,13.72
2022-10-14T20:58:36.169Z,13.74
2022-10-14T21:01:17.424Z,13.74
2022-10-14T21:03:46.493Z,13.71
2022-10-14T21:06:20.351Z,13.70
2022-10-14T21:08:49.745Z,13.70
2022-10-14T21:11:23.117Z,13.68
2022-10-14T21:13:52.985Z,13.69
2022-10-14T21:16:23.941Z,13.69
2022-10-14T21:18:56.798Z,13.68
2022-10-14T21:21:31.513Z,13.66
2022-10-14T21:23:59.587Z,13.67
2022-10-14T21:26:27.552Z,13.66
2022-10-14T21:28:55.339Z,13.66
2022-10-14T21:31:23.119Z,13.66
2022-10-14T21:34:04.216Z,13.68
2022-10-14T21:36:34.280Z,13.70
2022-10-14T21:39:06.207Z,13.70
2022-10-14T21:41:34.999Z,13.70
2022-10-14T21:44:02.504Z,13.71
2022-10-14T21:46:30.208Z,13.70
2022-10-14T21:48:58.290Z,13.66
2022-10-14T21:51:28.288Z,13.67
2022-10-14T21:53:56.256Z,13.66
2022-10-14T21:56:24.210Z,13.65
2022-10-14T21:58:52.296Z,13.65
2022-10-14T22:01:22.220Z,13.63
2022-10-14T22:03:58.176Z,13.63
2022-10-14T22:06:26.503Z,13.58
2022-10-14T22:08:55.657Z,13.58
2022-10-14T22:11:28.668Z,13.57
2022-10-14T22:13:58.306Z,13.58
2022-10-14T22:16:26.619Z,13.57
2022-10-14T22:18:54.104Z,13.56
2022-10-14T22:21:23.629Z,13.55
2022-10-14T22:23:51.466Z,13.55
2022-10-14T22:26:20.994Z,13.54
2022-10-14T22:28:49.053Z,13.53
2022-10-14T22:31:19.693Z,13.49
2022-10-14T22:33:47.284Z,13.44
2022-10-14T22:36:19.506Z,13.47
2022-10-14T22:38:50.153Z,13.48
2022-10-14T22:41:18.006Z,13.48
2022-10-14T22:43:47.195Z,13.48
2022-10-14T22:46:15.735Z,13.50
2022-10-14T22:48:43.202Z,13.48
2022-10-14T22:51:13.379Z,13.46
2022-10-14T22:53:41.896Z,13.43
2022-10-14T22:56:12.017Z,13.43
2022-10-14T22:58:39.747Z,13.43
2022-10-14T23:01:12.617Z,13.42
2022-10-14T23:03:40.210Z,13.43
2022-10-14T23:06:10.095Z,13.43
2022-10-14T23:08:39.259Z,13.42
2022-10-14T23:11:07.256Z,13.42
2022-10-14T23:13:35.068Z,13.44
2022-10-14T23:16:07.101Z,13.43
2022-10-14T23:18:37.178Z,13.42
2022-10-14T23:21:13.831Z,13.39
2022-10-14T23:23:41.797Z,13.36
2022-10-14T23:26:11.204Z,13.37
2022-10-14T23:28:39.265Z,13.36
2022-10-14T23:31:11.429Z,13.35
2022-10-14T23:33:39.186Z,13.35
2022-10-14T23:36:09.273Z,13.32
2022-10-14T23:38:37.121Z,13.33
2022-10-14T23:41:05.193Z,13.34
2022-10-14T23:43:33.158Z,13.33
2022-10-14T23:46:01.026Z,13.28
2022-10-14T23:48:29.248Z,13.25
2022-10-14T23:50:57.285Z,13.25
2022-10-14T23:53:28.613Z,13.27
2022-10-14T23:55:56.929Z,13.29
2022-10-14T23:58:25.280Z,13.30
